Time;durP1;ratioP1;P1;durP2;ratioP2;P2;SDS_P1;SDS_P2;PMS_P1;PMS_P2;Temp;Humidity;BMP_temperature;BMP_pressure;BME280_temperature;BME280_humidity;BME280_pressure;Samples;Min_cycle;Max_cycle;Signal;HPM_P1;HPM_P2
2023/09/23 00:01:53;;;;;;;0.73;0.50;;;14.30;99.90;;;;;;5026990;28;20070;-81
2023/09/23 00:04:20;;;;;;;1.77;0.80;;;14.30;99.90;;;;;;5044693;28;20151;-82
2023/09/23 00:06:49;;;;;;;2.45;0.98;;;14.30;99.90;;;;;;5053271;28;20221;-82
2023/09/23 00:09:17;;;;;;;1.65;0.80;;;14.30;99.90;;;;;;5052707;28;20045;-81
2023/09/23 00:11:43;;;;;;;2.05;0.57;;;14.30;99.90;;;;;;5053567;28;20083;-81
2023/09/23 00:14:11;;;;;;;1.45;0.50;;;14.30;99.90;;;;;;5050078;28;20505;-80
2023/09/23 00:16:38;;;;;;;0.73;0.50;;;14.20;99.90;;;;;;5050514;28;20050;-82
2023/09/23 00:19:05;;;;;;;1.20;0.80;;;14.20;99.90;;;;;;5045881;28;20056;-81
2023/09/23 00:21:31;;;;;;;1.00;0.65;;;14.20;99.90;;;;;;5057663;28;20048;-82
2023/09/23 00:24:01;;;;;;;2.05;0.88;;;14.20;99.90;;;;;;5056334;28;20098;-81
2023/09/23 00:26:28;;;;;;;1.67;0.73;;;14.20;99.90;;;;;;5049066;28;20052;-83
2023/09/23 00:28:55;;;;;;;3.63;0.77;;;14.20;99.90;;;;;;5033621;28;20041;-81
2023/09/23 00:31:24;;;;;;;2.85;0.70;;;14.20;99.90;;;;;;5047549;28;20049;-82
2023/09/23 00:33:51;;;;;;;1.45;0.70;;;14.10;99.90;;;;;;5047907;28;20078;-82
2023/09/23 00:36:19;;;;;;;3.35;0.70;;;14.10;99.90;;;;;;5053099;28;20209;-82
2023/09/23 00:38:46;;;;;;;1.20;0.85;;;14.20;99.90;;;;;;5056894;28;20080;-82
2023/09/23 00:41:13;;;;;;;1.67;0.80;;;14.10;99.90;;;;;;5049133;28;20084;-81
2023/09/23 00:43:40;;;;;;;2.03;0.50;;;14.10;99.90;;;;;;5049514;28;20060;-81
2023/09/23 00:46:08;;;;;;;0.98;0.70;;;14.10;99.90;;;;;;5031925;28;20512;-82
2023/09/23 00:48:42;;;;;;;1.23;0.60;;;14.00;99.90;;;;;;5042290;28;20045;-81
2023/09/23 00:51:10;;;;;;;1.33;0.70;;;14.00;99.90;;;;;;5055493;28;20049;-81
2023/09/23 00:53:39;;;;;;;3.70;0.80;;;14.00;99.90;;;;;;5035261;28;20076;-82
2023/09/23 00:56:08;;;;;;;2.10;0.63;;;13.90;99.90;;;;;;5049519;28;20053;-81
2023/09/23 00:58:38;;;;;;;0.50;0.40;;;13.90;99.90;;;;;;5049311;28;20119;-81
2023/09/23 01:01:05;;;;;;;1.40;0.63;;;13.90;99.90;;;;;;5050418;28;20528;-81
2023/09/23 01:03:32;;;;;;;2.92;0.60;;;13.80;99.90;;;;;;5033249;28;20084;-81
2023/09/23 01:06:04;;;;;;;0.75;0.60;;;13.80;99.90;;;;;;5058130;28;20052;-81
2023/09/23 01:08:31;;;;;;;4.28;0.90;;;13.80;99.90;;;;;;5033552;28;20389;-81
2023/09/23 01:10:57;;;;;;;1.10;0.32;;;13.70;99.90;;;;;;5045953;28;20044;-82
2023/09/23 01:13:24;;;;;;;0.50;0.50;;;13.70;99.90;;;;;;5030734;28;20081;-81
2023/09/23 01:15:51;;;;;;;1.58;0.77;;;13.70;99.90;;;;;;5032022;28;20053;-81
2023/09/23 01:18:20;;;;;;;2.22;0.60;;;13.60;99.90;;;;;;5055073;28;20434;-82
2023/09/23 01:20:55;;;;;;;1.75;0.65;;;13.60;99.90;;;;;;5054582;28;20054;-82
2023/09/23 01:23:22;;;;;;;2.47;0.75;;;13.60;99.90;;;;;;5052469;28;20045;-81
2023/09/23 01:25:48;;;;;;;0.77;0.60;;;13.60;99.90;;;;;;5050729;28;20107;-82
2023/09/23 01:28:15;;;;;;;4.97;1.00;;;13.50;99.90;;;;;;5046575;28;20060;-82
2023/09/23 01:30:46;;;;;;;1.85;0.70;;;13.50;99.90;;;;;;5050491;28;20072;-81
2023/09/23 01:33:16;;;;;;;1.98;0.73;;;13.50;99.90;;;;;;5058908;28;20040;-82
2023/09/23 01:35:43;;;;;;;3.80;0.73;;;13.40;99.90;;;;;;5046745;28;20045;-82
2023/09/23 01:38:11;;;;;;;2.75;0.60;;;13.40;99.90;;;;;;5033745;28;20061;-82
2023/09/23 01:40:39;;;;;;;5.68;0.65;;;13.40;99.90;;;;;;5048720;28;20042;-81
2023/09/23 01:43:11;;;;;;;1.85;0.70;;;13.30;99.90;;;;;;5045130;28;20068;-81
2023/09/23 01:45:38;;;;;;;1.90;1.55;;;13.30;99.90;;;;;;5031272;28;20128;-81
2023/09/23 01:48:07;;;;;;;3.50;1.13;;;13.30;99.90;;;;;;5058366;28;20048;-81
2023/09/23 01:50:34;;;;;;;1.52;0.73;;;13.30;99.90;;;;;;5051215;28;20068;-82
2023/09/23 01:53:01;;;;;;;1.77;0.60;;;13.30;99.90;;;;;;5049535;28;20704;-82
2023/09/23 01:55:28;;;;;;;4.25;0.73;;;13.30;99.90;;;;;;5047410;28;20050;-81
2023/09/23 01:57:55;;;;;;;1.35;0.98;;;13.20;99.90;;;;;;5040720;28;20463;-82
2023/09/23 02:00:24;;;;;;;1.77;0.70;;;13.20;99.90;;;;;;5052084;28;20057;-81
2023/09/23 02:02:53;;;;;;;2.25;0.60;;;13.20;99.90;;;;;;5061699;28;20049;-81
2023/09/23 02:05:24;;;;;;;0.75;0.50;;;13.20;99.90;;;;;;5053772;28;20050;-81
2023/09/23 02:07:50;;;;;;;0.80;0.60;;;13.20;99.90;;;;;;5048046;28;20045;-82
2023/09/23 02:10:17;;;;;;;2.47;0.80;;;13.10;99.90;;;;;;5045573;28;20048;-81
2023/09/23 02:12:44;;;;;;;1.55;0.60;;;13.20;99.90;;;;;;5040579;28;20145;-80
2023/09/23 02:15:17;;;;;;;1.63;0.60;;;13.00;99.90;;;;;;5053790;28;20068;-81
2023/09/23 02:17:45;;;;;;;2.10;0.75;;;13.00;99.90;;;;;;5037420;28;20045;-81
2023/09/23 02:20:19;;;;;;;2.42;0.88;;;13.00;99.90;;;;;;5050390;28;20477;-82
2023/09/23 02:22:55;;;;;;;3.90;0.80;;;13.00;99.90;;;;;;5033950;28;20064;-81
2023/09/23 02:25:25;;;;;;;1.27;0.73;;;13.00;99.90;;;;;;5048159;28;20041;-81
2023/09/23 02:27:53;;;;;;;1.60;0.85;;;12.90;99.90;;;;;;5042459;28;20052;-81
2023/09/23 02:30:21;;;;;;;2.03;0.70;;;12.90;99.90;;;;;;5053505;28;20508;-81
2023/09/23 02:32:48;;;;;;;1.50;0.70;;;12.90;99.90;;;;;;5041648;28;20060;-81
2023/09/23 02:35:16;;;;;;;1.10;0.70;;;12.90;99.90;;;;;;5047366;28;20052;-82
2023/09/23 02:37:45;;;;;;;4.20;0.90;;;12.90;99.90;;;;;;5051225;28;20041;-81
2023/09/23 02:40:14;;;;;;;1.90;0.80;;;12.80;99.90;;;;;;5045240;28;20580;-82
2023/09/23 02:42:43;;;;;;;2.42;0.65;;;12.80;99.90;;;;;;5027529;28;20064;-82
2023/09/23 02:45:12;;;;;;;8.23;1.00;;;12.70;99.90;;;;;;5054243;28;20049;-81
2023/09/23 02:47:40;;;;;;;1.55;0.82;;;12.70;99.90;;;;;;5051469;28;20091;-81
2023/09/23 02:50:13;;;;;;;2.20;0.70;;;12.70;99.90;;;;;;5044214;28;20591;-81
2023/09/23 02:52:42;;;;;;;1.13;0.65;;;12.70;99.90;;;;;;5046642;28;20048;-81
2023/09/23 02:55:14;;;;;;;0.98;0.60;;;12.70;99.90;;;;;;5043371;28;20103;-81
2023/09/23 02:57:49;;;;;;;1.25;0.52;;;12.60;99.90;;;;;;5044377;28;20072;-81
2023/09/23 03:00:17;;;;;;;2.95;0.75;;;12.60;99.90;;;;;;5050727;28;20067;-81
2023/09/23 03:02:48;;;;;;;1.95;0.60;;;12.60;99.90;;;;;;5039444;28;20107;-81
2023/09/23 03:05:23;;;;;;;2.60;0.77;;;12.60;99.90;;;;;;5044551;28;20084;-81
2023/09/23 03:07:50;;;;;;;2.58;0.90;;;12.60;99.90;;;;;;5047075;28;20492;-82
2023/09/23 03:10:31;;;;;;;2.88;0.70;;;12.50;99.90;;;;;;5043224;28;20048;-81
2023/09/23 03:13:17;;;;;;;2.08;0.60;;;12.50;99.90;;;;;;5040044;28;20069;-82
2023/09/23 03:16:08;;;;;;;2.38;0.52;;;12.50;99.90;;;;;;5051524;28;20044;-81
2023/09/23 03:18:54;;;;;;;3.42;0.90;;;12.50;99.90;;;;;;5051521;28;20041;-81
2023/09/23 03:21:21;;;;;;;1.20;0.80;;;12.50;99.90;;;;;;5043205;28;20038;-81
2023/09/23 03:23:48;;;;;;;2.33;0.80;;;12.50;99.90;;;;;;5048737;28;20064;-81
2023/09/23 03:26:19;;;;;;;0.88;0.77;;;12.50;99.90;;;;;;5043279;28;20514;-81
2023/09/23 03:28:46;;;;;;;1.23;0.75;;;12.40;99.90;;;;;;5042142;28;20064;-82
2023/09/23 03:31:14;;;;;;;2.95;0.90;;;12.40;99.90;;;;;;5047942;28;20041;-81
2023/09/23 03:33:42;;;;;;;2.67;1.05;;;12.40;99.90;;;;;;5048198;28;20045;-81
2023/09/23 03:36:15;;;;;;;1.65;0.80;;;12.40;99.90;;;;;;5040235;28;20087;-81
2023/09/23 03:38:42;;;;;;;3.13;0.75;;;12.40;99.90;;;;;;5048326;28;20083;-82
2023/09/23 03:41:11;;;;;;;2.72;0.70;;;12.40;99.90;;;;;;5052269;28;20049;-81
2023/09/23 03:43:39;;;;;;;4.57;0.90;;;12.40;99.90;;;;;;5048936;28;20485;-81
2023/09/23 03:46:16;;;;;;;2.22;0.95;;;12.40;99.90;;;;;;5052048;28;20052;-82
2023/09/23 03:48:43;;;;;;;3.22;1.02;;;12.40;99.90;;;;;;5032481;28;20044;-81
2023/09/23 03:51:14;;;;;;;2.53;0.77;;;12.40;99.90;;;;;;5047034;28;20052;-81
2023/09/23 03:53:43;;;;;;;1.10;0.80;;;12.40;99.90;;;;;;5039952;28;20041;-82
2023/09/23 03:56:10;;;;;;;1.67;0.97;;;12.40;99.90;;;;;;5059032;28;20491;-81
2023/09/23 03:58:38;;;;;;;3.85;0.80;;;12.40;99.90;;;;;;5051262;28;20053;-82
2023/09/23 04:01:10;;;;;;;2.03;0.90;;;12.30;99.90;;;;;;5036699;28;20551;-81
2023/09/23 04:03:37;;;;;;;2.72;0.80;;;12.40;99.90;;;;;;5049953;28;20049;-82
2023/09/23 04:06:05;;;;;;;3.25;0.65;;;12.30;99.90;;;;;;5047135;28;20052;-81
2023/09/23 04:08:32;;;;;;;1.58;0.70;;;12.30;99.90;;;;;;5053956;28;20056;-81
2023/09/23 04:11:05;;;;;;;1.02;0.57;;;12.30;99.90;;;;;;5061493;28;20045;-80
2023/09/23 04:13:32;;;;;;;1.02;0.70;;;12.30;99.90;;;;;;5052125;28;20056;-82
2023/09/23 04:16:00;;;;;;;1.10;0.75;;;12.30;99.90;;;;;;5051577;28;20096;-79
2023/09/23 04:18:28;;;;;;;1.48;0.80;;;12.30;99.90;;;;;;5050835;28;20124;-81
2023/09/23 04:20:55;;;;;;;1.25;0.60;;;12.40;99.90;;;;;;5044505;28;20091;-81
2023/09/23 04:23:22;;;;;;;3.00;1.00;;;12.30;99.90;;;;;;5036899;28;20045;-81
2023/09/23 04:25:49;;;;;;;3.50;0.73;;;12.40;99.90;;;;;;5056043;28;20049;-81
2023/09/23 04:28:17;;;;;;;1.90;0.82;;;12.30;99.90;;;;;;5052911;28;20135;-82
2023/09/23 04:30:44;;;;;;;2.10;0.80;;;12.30;99.90;;;;;;5047111;28;20163;-81
2023/09/23 04:33:12;;;;;;;4.00;0.90;;;12.30;99.90;;;;;;5035074;28;20066;-81
2023/09/23 04:35:39;;;;;;;2.13;0.73;;;12.30;99.90;;;;;;5041932;28;20128;-81
2023/09/23 04:38:06;;;;;;;2.60;0.65;;;12.30;99.90;;;;;;5057090;28;20170;-81
2023/09/23 04:40:33;;;;;;;2.17;0.80;;;12.30;99.90;;;;;;5035410;28;20080;-82
2023/09/23 04:43:00;;;;;;;1.83;0.73;;;12.30;99.90;;;;;;5045718;28;20112;-82
2023/09/23 04:45:27;;;;;;;3.28;0.85;;;12.30;99.90;;;;;;5049602;28;20057;-81
2023/09/23 04:47:54;;;;;;;2.30;1.08;;;12.30;99.90;;;;;;5050067;28;20046;-81
2023/09/23 04:50:23;;;;;;;3.03;0.88;;;12.30;99.90;;;;;;5028419;28;20046;-81
2023/09/23 04:52:50;;;;;;;0.65;0.60;;;12.30;99.90;;;;;;5054326;28;20068;-82
2023/09/23 04:55:17;;;;;;;3.25;0.90;;;12.30;99.90;;;;;;5040451;28;20119;-82
2023/09/23 04:57:44;;;;;;;1.40;1.08;;;12.30;99.90;;;;;;5051517;28;20037;-81
2023/09/23 05:00:15;;;;;;;1.58;1.00;;;12.30;99.90;;;;;;5047293;28;20087;-81
2023/09/23 05:02:41;;;;;;;2.53;0.90;;;12.30;99.90;;;;;;5050837;28;20049;-81
2023/09/23 05:05:09;;;;;;;2.42;0.95;;;12.20;99.90;;;;;;5045583;28;20107;-81
2023/09/23 05:07:37;;;;;;;2.83;1.25;;;12.20;99.90;;;;;;5056953;28;20064;-82
2023/09/23 05:10:05;;;;;;;1.90;0.93;;;12.20;99.90;;;;;;5057529;28;20041;-81
2023/09/23 05:12:33;;;;;;;0.82;0.77;;;12.20;99.90;;;;;;5054624;28;20042;-83
2023/09/23 05:15:00;;;;;;;2.03;0.90;;;12.20;99.90;;;;;;5048547;28;20050;-81
2023/09/23 05:17:28;;;;;;;3.50;0.80;;;12.10;99.90;;;;;;5032916;28;20072;-81
2023/09/23 05:19:55;;;;;;;3.20;0.75;;;12.10;99.90;;;;;;5027496;28;20429;-81
2023/09/23 05:22:22;;;;;;;1.58;0.80;;;12.10;99.90;;;;;;5056692;28;20044;-82
2023/09/23 05:24:56;;;;;;;1.00;0.90;;;12.10;99.90;;;;;;5050933;28;20049;-81
2023/09/23 05:27:23;;;;;;;1.42;0.98;;;12.10;99.90;;;;;;5050217;28;20052;-82
2023/09/23 05:29:51;;;;;;;2.15;1.20;;;12.00;99.90;;;;;;5038432;28;20057;-82
2023/09/23 05:32:18;;;;;;;1.90;1.35;;;12.10;99.90;;;;;;5038641;28;20051;-81
2023/09/23 05:34:45;;;;;;;1.70;1.10;;;12.00;99.90;;;;;;5030779;28;20041;-81
2023/09/23 05:37:12;;;;;;;2.00;0.90;;;12.00;99.90;;;;;;5057243;28;20048;-81
2023/09/23 05:39:45;;;;;;;1.27;0.90;;;12.00;99.90;;;;;;5038037;28;20425;-81
2023/09/23 05:42:13;;;;;;;1.05;0.90;;;12.00;99.90;;;;;;5052816;28;20058;-82
2023/09/23 05:44:41;;;;;;;2.75;1.05;;;12.00;99.90;;;;;;5038071;28;20041;-81
2023/09/23 05:47:08;;;;;;;2.45;1.00;;;12.00;99.90;;;;;;5050967;28;20056;-82
2023/09/23 05:49:36;;;;;;;2.55;1.13;;;12.00;99.90;;;;;;5034939;28;20052;-81
2023/09/23 05:52:04;;;;;;;2.20;0.93;;;12.00;99.90;;;;;;5055108;28;20511;-82
2023/09/23 05:54:31;;;;;;;3.63;1.08;;;12.00;99.90;;;;;;5048101;28;20084;-81
2023/09/23 05:56:58;;;;;;;0.98;0.80;;;12.00;99.90;;;;;;5032991;28;20056;-81
2023/09/23 05:59:25;;;;;;;1.73;1.02;;;12.00;99.90;;;;;;5042451;28;20420;-82
2023/09/23 06:01:51;;;;;;;2.72;0.98;;;12.10;99.90;;;;;;5032202;28;20041;-81
2023/09/23 06:04:18;;;;;;;2.13;0.93;;;12.10;99.90;;;;;;5052501;28;20190;-81
2023/09/23 06:06:45;;;;;;;2.08;0.90;;;12.10;99.90;;;;;;5049649;28;20041;-81
2023/09/23 06:09:12;;;;;;;0.80;0.70;;;12.10;99.90;;;;;;5049775;28;20464;-81
2023/09/23 06:11:38;;;;;;;4.15;0.90;;;12.10;99.90;;;;;;5049941;28;20041;-81
2023/09/23 06:14:05;;;;;;;5.05;1.35;;;12.20;99.90;;;;;;5043943;28;20053;-81
2023/09/23 06:16:32;;;;;;;3.38;1.45;;;12.20;99.90;;;;;;5047584;28;20048;-81
2023/09/23 06:18:58;;;;;;;1.08;0.82;;;12.20;99.90;;;;;;5054421;28;20051;-81
2023/09/23 06:21:26;;;;;;;4.60;1.00;;;12.20;99.90;;;;;;5038556;28;20051;-81
2023/09/23 06:23:53;;;;;;;1.33;0.80;;;12.20;99.90;;;;;;5048140;28;20099;-82
2023/09/23 06:26:20;;;;;;;1.13;0.90;;;12.30;99.90;;;;;;5049433;28;20311;-81
2023/09/23 06:28:46;;;;;;;2.95;0.90;;;12.30;99.90;;;;;;5041536;28;20045;-81
2023/09/23 06:31:13;;;;;;;1.35;0.90;;;12.30;99.90;;;;;;5053684;28;20045;-81
2023/09/23 06:33:40;;;;;;;7.43;1.20;;;12.30;99.90;;;;;;5039546;28;20087;-81
2023/09/23 06:36:07;;;;;;;2.28;0.98;;;12.40;99.90;;;;;;5060710;28;20323;-81
2023/09/23 06:38:34;;;;;;;3.55;1.23;;;12.40;99.90;;;;;;5045889;28;20065;-81
2023/09/23 06:41:00;;;;;;;4.22;1.40;;;12.50;99.90;;;;;;5040314;28;20053;-81
2023/09/23 06:43:28;;;;;;;2.47;1.10;;;12.50;99.90;;;;;;5041068;28;20048;-82
2023/09/23 06:45:56;;;;;;;1.63;0.90;;;12.60;99.90;;;;;;5048369;28;20045;-81
2023/09/23 06:48:23;;;;;;;2.10;0.82;;;12.60;99.90;;;;;;5046979;28;20056;-81
2023/09/23 06:51:00;;;;;;;1.20;0.80;;;12.60;99.90;;;;;;5052030;28;20041;-82
2023/09/23 06:53:28;;;;;;;2.00;0.80;;;12.70;99.90;;;;;;5045415;28;20099;-81
2023/09/23 06:55:56;;;;;;;2.67;0.70;;;12.70;99.90;;;;;;5034269;28;20609;-82
2023/09/23 06:58:22;;;;;;;0.60;0.60;;;12.80;99.90;;;;;;5043994;28;20045;-82
2023/09/23 07:00:49;;;;;;;0.73;0.65;;;12.80;99.90;;;;;;5051555;28;20406;-82
2023/09/23 07:03:16;;;;;;;0.50;0.50;;;12.80;99.90;;;;;;5054097;28;20421;-82
2023/09/23 07:05:43;;;;;;;2.75;0.80;;;12.80;99.90;;;;;;5056467;28;20073;-82
2023/09/23 07:08:10;;;;;;;1.83;0.70;;;12.90;99.90;;;;;;5046922;28;20091;-81
2023/09/23 07:10:39;;;;;;;1.25;0.90;;;12.90;99.90;;;;;;5035043;28;20048;-82
2023/09/23 07:13:06;;;;;;;4.55;0.80;;;12.90;99.90;;;;;;5024746;28;20417;-82
2023/09/23 07:15:37;;;;;;;1.55;0.70;;;12.90;99.90;;;;;;5050270;28;20098;-81
2023/09/23 07:18:05;;;;;;;3.85;1.77;;;12.90;99.90;;;;;;5050642;28;20061;-81
2023/09/23 07:20:32;;;;;;;4.20;1.77;;;12.90;99.90;;;;;;5040248;28;20044;-81
2023/09/23 07:23:00;;;;;;;1.23;1.13;;;12.90;99.90;;;;;;5038019;28;20055;-81
2023/09/23 07:25:27;;;;;;;1.40;0.70;;;12.90;99.90;;;;;;5032320;28;20531;-82
2023/09/23 07:27:54;;;;;;;1.80;0.90;;;12.90;99.90;;;;;;5042100;28;20049;-82
2023/09/23 07:30:21;;;;;;;0.93;0.70;;;13.00;99.90;;;;;;5038901;28;20400;-81
2023/09/23 07:32:48;;;;;;;0.80;0.60;;;13.00;99.90;;;;;;5049640;28;20063;-81
2023/09/23 07:35:15;;;;;;;0.88;0.80;;;13.00;99.90;;;;;;5039724;28;20045;-80
2023/09/23 07:37:42;;;;;;;1.35;0.70;;;13.00;99.90;;;;;;5042424;28;20068;-81
2023/09/23 07:40:09;;;;;;;0.60;0.57;;;13.00;99.90;;;;;;5046036;28;20087;-82
2023/09/23 07:42:36;;;;;;;3.35;0.85;;;13.00;99.90;;;;;;5042060;28;20103;-81
2023/09/23 07:45:03;;;;;;;2.17;0.93;;;13.10;99.90;;;;;;5050548;28;20081;-82
2023/09/23 07:47:29;;;;;;;1.27;0.75;;;13.10;99.90;;;;;;5051445;28;20171;-82
2023/09/23 07:49:57;;;;;;;3.53;0.90;;;13.10;99.90;;;;;;5035207;28;20057;-82
2023/09/23 07:52:24;;;;;;;0.82;0.80;;;13.10;99.90;;;;;;5046050;28;20045;-82
2023/09/23 07:54:51;;;;;;;2.25;0.90;;;13.10;99.90;;;;;;5032367;28;20076;-81
2023/09/23 07:57:18;;;;;;;0.82;0.77;;;13.20;99.90;;;;;;5045598;28;20065;-80
2023/09/23 07:59:44;;;;;;;1.20;1.02;;;13.20;99.90;;;;;;5054368;28;20049;-81
2023/09/23 08:02:11;;;;;;;1.85;0.68;;;13.20;99.90;;;;;;5050345;28;20050;-81
2023/09/23 08:04:38;;;;;;;3.72;0.60;;;13.30;99.90;;;;;;5039823;28;20041;-81
2023/09/23 08:07:06;;;;;;;2.67;0.75;;;13.30;99.90;;;;;;5044371;28;20049;-82
2023/09/23 08:09:33;;;;;;;2.03;0.60;;;13.40;99.90;;;;;;5052877;28;20045;-82
2023/09/23 08:11:59;;;;;;;1.33;0.80;;;13.40;99.90;;;;;;5031795;28;20056;-81
2023/09/23 08:14:26;;;;;;;1.02;0.43;;;13.50;99.90;;;;;;5056552;28;20041;-82
2023/09/23 08:16:53;;;;;;;1.08;0.65;;;13.60;99.90;;;;;;5047134;28;20048;-82
2023/09/23 08:19:21;;;;;;;1.92;0.52;;;13.70;99.90;;;;;;5051047;28;20398;-81
2023/09/23 08:21:47;;;;;;;2.05;0.63;;;13.70;99.90;;;;;;5041975;28;20519;-81
2023/09/23 08:24:14;;;;;;;1.70;0.55;;;13.80;99.90;;;;;;5045637;28;20170;-81
2023/09/23 08:26:41;;;;;;;0.77;0.60;;;13.80;99.90;;;;;;5052592;28;20091;-82
2023/09/23 08:29:09;;;;;;;1.73;0.63;;;13.90;99.90;;;;;;5052350;28;20056;-81
2023/09/23 08:31:36;;;;;;;2.67;0.90;;;13.90;99.90;;;;;;5049012;28;20045;-82
2023/09/23 08:34:09;;;;;;;1.38;0.70;;;14.00;99.90;;;;;;5051090;28;20052;-81
2023/09/23 08:36:36;;;;;;;5.70;0.80;;;14.00;99.90;;;;;;5046886;28;20045;-82
2023/09/23 08:39:09;;;;;;;1.17;0.57;;;14.10;99.90;;;;;;5047424;28;20049;-81
2023/09/23 08:41:36;;;;;;;1.05;0.60;;;14.10;99.90;;;;;;5055306;28;20045;-82
2023/09/23 08:44:06;;;;;;;2.92;0.70;;;14.20;99.90;;;;;;5055536;28;20053;-82
2023/09/23 08:46:33;;;;;;;2.05;0.70;;;14.20;99.90;;;;;;5039749;28;20048;-82
2023/09/23 08:49:00;;;;;;;2.22;0.60;;;14.30;99.90;;;;;;5051292;28;20081;-81
2023/09/23 08:51:30;;;;;;;2.22;0.73;;;14.30;99.90;;;;;;5030464;28;20436;-81
2023/09/23 08:53:56;;;;;;;4.38;0.50;;;14.30;99.90;;;;;;5050030;28;20056;-82
2023/09/23 08:56:23;;;;;;;1.58;0.85;;;14.40;99.90;;;;;;5066668;28;20432;-81
2023/09/23 08:58:50;;;;;;;1.48;0.90;;;14.40;99.90;;;;;;5072347;28;20132;-81
2023/09/23 09:01:17;;;;;;;1.52;0.63;;;14.50;99.90;;;;;;5067533;28;20041;-82
2023/09/23 09:03:45;;;;;;;2.85;0.80;;;14.50;99.90;;;;;;5051706;28;20102;-81
2023/09/23 09:06:19;;;;;;;2.53;0.63;;;14.60;99.90;;;;;;5044522;28;20047;-81
2023/09/23 09:08:46;;;;;;;1.35;0.70;;;14.60;99.90;;;;;;5049437;28;20044;-81
2023/09/23 09:11:21;;;;;;;1.85;0.82;;;14.70;99.90;;;;;;5053120;28;20049;-81
2023/09/23 09:13:49;;;;;;;2.30;0.80;;;14.70;99.90;;;;;;5053433;28;20084;-81
2023/09/23 09:16:16;;;;;;;2.45;0.82;;;14.70;99.90;;;;;;5041182;28;20049;-82
2023/09/23 09:18:43;;;;;;;4.28;0.50;;;14.80;99.90;;;;;;5047866;28;20041;-81
2023/09/23 09:21:10;;;;;;;1.55;0.50;;;14.80;99.90;;;;;;5045551;28;20064;-82
2023/09/23 09:23:38;;;;;;;1.77;0.70;;;14.90;99.90;;;;;;5034687;28;20496;-82
2023/09/23 09:26:05;;;;;;;2.00;0.63;;;14.90;99.90;;;;;;5040493;28;20050;-82
2023/09/23 09:28:32;;;;;;;1.00;0.70;;;15.00;99.90;;;;;;5055494;28;20122;-82
2023/09/23 09:30:59;;;;;;;2.95;0.60;;;15.00;99.90;;;;;;5044486;28;20112;-82
2023/09/23 09:33:29;;;;;;;2.83;0.93;;;15.10;99.90;;;;;;5049365;28;20045;-82
2023/09/23 09:35:56;;;;;;;3.40;0.60;;;15.10;99.90;;;;;;5026583;28;20527;-81
2023/09/23 09:38:27;;;;;;;1.77;0.47;;;15.10;99.90;;;;;;5047766;28;20049;-80
2023/09/23 09:41:05;;;;;;;6.30;1.02;;;15.10;99.90;;;;;;5050375;28;20068;-81
2023/09/23 09:43:33;;;;;;;3.53;0.70;;;15.20;99.90;;;;;;5035352;28;20047;-82
2023/09/23 09:46:08;;;;;;;1.58;0.60;;;15.30;99.90;;;;;;5044047;28;20049;-81
2023/09/23 09:48:41;;;;;;;0.75;0.50;;;15.30;99.90;;;;;;5031534;28;20049;-81
2023/09/23 09:51:09;;;;;;;1.35;0.70;;;15.30;99.90;;;;;;5042619;28;20065;-82
2023/09/23 09:53:36;;;;;;;2.17;0.77;;;15.50;99.90;;;;;;5057047;28;20415;-81
2023/09/23 09:56:04;;;;;;;1.67;0.80;;;15.40;99.90;;;;;;5048434;28;20509;-81
2023/09/23 09:58:37;;;;;;;0.90;0.50;;;15.50;99.90;;;;;;5035764;28;20044;-79
2023/09/23 10:01:04;;;;;;;2.90;1.00;;;15.50;99.90;;;;;;5024532;28;20056;-81
2023/09/23 10:03:32;;;;;;;4.05;1.40;;;15.60;99.90;;;;;;5029699;28;20045;-81
2023/09/23 10:06:00;;;;;;;2.10;0.77;;;15.60;99.90;;;;;;5046836;28;20415;-81
2023/09/23 10:08:36;;;;;;;1.20;0.80;;;15.70;99.90;;;;;;5042464;28;20053;-81
2023/09/23 10:11:03;;;;;;;1.30;0.52;;;15.70;99.90;;;;;;5047161;28;20045;-82
2023/09/23 10:13:33;;;;;;;3.72;0.75;;;15.80;99.90;;;;;;5051020;28;20148;-81
2023/09/23 10:16:17;;;;;;;2.30;0.77;;;15.80;99.90;;;;;;5039961;28;20049;-80
2023/09/23 10:18:59;;;;;;;4.57;0.68;;;15.90;99.90;;;;;;5027964;28;20091;-82
2023/09/23 10:21:30;;;;;;;2.80;0.75;;;15.90;99.90;;;;;;5030215;28;20048;-81
2023/09/23 10:23:57;;;;;;;2.00;0.65;;;16.00;99.90;;;;;;5054777;28;20053;-79
2023/09/23 10:26:28;;;;;;;1.60;0.73;;;16.00;99.90;;;;;;5050423;28;20448;-80
2023/09/23 10:29:01;;;;;;;1.52;0.75;;;16.00;99.90;;;;;;5049399;28;20081;-80
2023/09/23 10:31:30;;;;;;;2.35;0.90;;;16.00;99.90;;;;;;5044165;28;20045;-80
2023/09/23 10:33:57;;;;;;;1.10;0.75;;;16.00;99.90;;;;;;5053905;28;20068;-82
2023/09/23 10:36:24;;;;;;;0.95;0.73;;;16.10;99.90;;;;;;5054175;28;20151;-82
2023/09/23 10:38:50;;;;;;;5.43;0.90;;;16.10;99.90;;;;;;5047711;28;20049;-82
2023/09/23 10:41:17;;;;;;;2.05;0.95;;;16.20;99.90;;;;;;5032405;28;20084;-82
2023/09/23 10:43:53;;;;;;;1.98;0.52;;;16.20;99.90;;;;;;5049815;28;20041;-82
2023/09/23 10:46:20;;;;;;;2.63;0.68;;;16.20;99.90;;;;;;5051305;28;20081;-82
2023/09/23 10:48:47;;;;;;;1.58;0.73;;;16.30;99.90;;;;;;5042948;28;20047;-81
2023/09/23 10:51:15;;;;;;;1.13;0.55;;;16.30;99.90;;;;;;5043386;28;20051;-82
2023/09/23 10:53:42;;;;;;;0.80;0.68;;;16.40;99.90;;;;;;5058978;28;20098;-81
2023/09/23 10:56:10;;;;;;;2.30;0.70;;;16.40;99.90;;;;;;5039005;28;20043;-81
2023/09/23 10:58:38;;;;;;;1.00;0.50;;;16.50;99.90;;;;;;5045545;28;20042;-82
2023/09/23 11:01:06;;;;;;;2.47;0.80;;;16.60;99.90;;;;;;5038866;28;20134;-81
2023/09/23 11:03:40;;;;;;;3.20;0.88;;;16.70;99.90;;;;;;5051302;28;20052;-82
2023/09/23 11:06:08;;;;;;;2.88;0.70;;;16.80;99.90;;;;;;5047035;28;20045;-81
2023/09/23 11:08:36;;;;;;;2.85;0.82;;;17.00;99.90;;;;;;5048241;28;20091;-82
2023/09/23 11:11:03;;;;;;;1.27;0.60;;;17.10;99.90;;;;;;5042578;28;20053;-79
2023/09/23 11:13:33;;;;;;;1.23;0.63;;;17.20;99.90;;;;;;5029473;28;20050;-78
2023/09/23 11:16:08;;;;;;;5.75;0.82;;;17.30;99.90;;;;;;5042748;28;20051;-80
2023/09/23 11:18:39;;;;;;;1.23;0.40;;;17.40;99.90;;;;;;5055193;28;20092;-80
2023/09/23 11:21:06;;;;;;;3.90;0.80;;;17.40;99.90;;;;;;5050451;28;20053;-80
2023/09/23 11:23:34;;;;;;;2.05;0.43;;;17.50;99.90;;;;;;5051280;28;20054;-78
2023/09/23 11:26:02;;;;;;;1.23;0.60;;;17.50;99.90;;;;;;5029827;28;20071;-79
2023/09/23 11:28:29;;;;;;;2.60;0.90;;;17.50;99.90;;;;;;5055180;28;20551;-79
2023/09/23 11:30:56;;;;;;;3.92;0.60;;;17.50;99.90;;;;;;5050502;28;20076;-79
2023/09/23 11:33:26;;;;;;;1.25;0.60;;;17.60;99.90;;;;;;5052161;28;20045;-79
2023/09/23 11:35:54;;;;;;;2.63;0.88;;;17.60;99.90;;;;;;5045065;28;20563;-80
2023/09/23 11:38:21;;;;;;;3.35;0.50;;;17.60;99.90;;;;;;5043431;28;20042;-80
2023/09/23 11:40:48;;;;;;;2.40;0.70;;;17.60;99.90;;;;;;5043866;28;20099;-79
2023/09/23 11:43:15;;;;;;;1.17;0.47;;;17.70;99.90;;;;;;5044930;28;20053;-79
2023/09/23 11:45:43;;;;;;;3.55;0.75;;;17.70;99.90;;;;;;5043259;28;20044;-80
2023/09/23 11:48:10;;;;;;;2.33;0.80;;;17.80;99.90;;;;;;5046588;28;20042;-80
2023/09/23 11:50:38;;;;;;;3.28;0.63;;;17.80;99.90;;;;;;5052458;28;20055;-79
2023/09/23 11:53:05;;;;;;;2.45;0.63;;;17.80;99.90;;;;;;5027215;28;20139;-80
2023/09/23 11:55:32;;;;;;;2.63;0.60;;;17.90;99.90;;;;;;5040865;28;20076;-80
2023/09/23 11:58:00;;;;;;;3.08;0.70;;;17.90;99.90;;;;;;5029588;28;20057;-80
2023/09/23 12:00:28;;;;;;;2.10;0.70;;;18.00;99.90;;;;;;5049946;28;20045;-80
2023/09/23 12:02:56;;;;;;;3.55;0.60;;;18.00;99.90;;;;;;5048948;28;20057;-79
2023/09/23 12:05:28;;;;;;;1.60;0.50;;;18.10;99.90;;;;;;5028734;28;20048;-79
2023/09/23 12:07:58;;;;;;;2.55;1.23;;;18.20;99.90;;;;;;5050417;28;20099;-79
2023/09/23 12:10:27;;;;;;;2.47;0.60;;;18.30;99.90;;;;;;5047088;28;20046;-80
2023/09/23 12:12:56;;;;;;;1.67;0.63;;;18.50;99.90;;;;;;5045933;28;20045;-79
2023/09/23 12:15:23;;;;;;;1.85;0.73;;;18.60;99.90;;;;;;5047023;28;20068;-80
2023/09/23 12:17:50;;;;;;;1.23;0.63;;;18.70;99.90;;;;;;5054786;28;20040;-79
2023/09/23 12:20:18;;;;;;;2.15;0.60;;;18.80;99.90;;;;;;5047733;28;20049;-80
2023/09/23 12:22:45;;;;;;;0.98;0.55;;;18.90;99.90;;;;;;5032790;28;20126;-80
2023/09/23 12:25:12;;;;;;;2.10;0.65;;;19.00;99.90;;;;;;5040913;28;20106;-80
2023/09/23 12:27:39;;;;;;;2.30;0.82;;;19.00;99.90;;;;;;5048568;28;20081;-80
2023/09/23 12:30:06;;;;;;;6.80;0.98;;;19.00;99.90;;;;;;5051255;28;20140;-79
2023/09/23 12:32:33;;;;;;;3.95;0.45;;;19.00;99.90;;;;;;5052653;28;20050;-80
2023/09/23 12:35:00;;;;;;;1.80;0.85;;;19.00;99.90;;;;;;5032300;28;20128;-80
2023/09/23 12:37:27;;;;;;;1.10;0.50;;;19.10;99.90;;;;;;5039923;28;20041;-80
2023/09/23 12:39:55;;;;;;;1.10;0.60;;;19.00;99.90;;;;;;5042894;28;20500;-80
2023/09/23 12:42:23;;;;;;;3.53;0.80;;;19.00;99.90;;;;;;5048481;28;20057;-80
2023/09/23 12:44:49;;;;;;;1.48;0.65;;;19.00;99.90;;;;;;5048659;28;20061;-80
2023/09/23 12:47:16;;;;;;;5.60;1.80;;;19.00;99.90;;;;;;5055590;28;20103;-80
2023/09/23 12:49:43;;;;;;;2.28;1.00;;;19.00;99.90;;;;;;5033490;28;20049;-80
2023/09/23 12:52:11;;;;;;;0.95;0.60;;;19.00;99.90;;;;;;5051328;28;20049;-80
2023/09/23 12:54:38;;;;;;;4.93;0.95;;;19.00;99.90;;;;;;5043858;28;20046;-80